Bluffton, South Carolina
Current Conditions -  °F | °C
As of 4:35 AM on Sunday 21 Dec 2014 (Local Time) from KHXD Reporting Station
Overcast Overcast  
Wind Chill: 45°   Ceiling: 600
Heat Index: 48°   Visibility: 10mi
Dew Point: 48°   Wind: 8mph
Humidity: 100%   Direction: 350°N
Pressure: 30.18"   Gusts: NA
Location:  32.24°N, 80.86°W
Report Text: KHXD 210935Z AUTO 35007KT 10SM OVC006 09/09 A3018 RMK AO2 P0000
Loading
Personal Weather Stations






























Interactive Weather Map New forecast layout! Learn more

10-Day Weather Forecast

Advertisements
Track Severe Weather on mobile